createdAt,value
2022-09-11T00:00:15.858Z,100.00
2022-09-11T00:02:22.935Z,100.00
2022-09-11T00:04:27.857Z,100.00
2022-09-11T00:06:35.523Z,100.00
2022-09-11T00:08:41.377Z,100.00
2022-09-11T00:10:48.299Z,100.00
2022-09-11T00:12:53.237Z,100.00
2022-09-11T00:14:58.050Z,100.00
2022-09-11T00:17:02.805Z,100.00
2022-09-11T00:19:09.786Z,100.00
2022-09-11T00:21:14.623Z,100.00
2022-09-11T00:23:23.369Z,100.00
2022-09-11T00:25:28.140Z,100.00
2022-09-11T00:27:32.931Z,100.00
2022-09-11T00:29:37.665Z,100.00
2022-09-11T00:31:42.639Z,100.00
2022-09-11T00:33:48.129Z,100.00
2022-09-11T00:35:59.099Z,100.00
2022-09-11T00:38:03.880Z,100.00
2022-09-11T00:40:12.728Z,100.00
2022-09-11T00:42:17.570Z,100.00
2022-09-11T00:44:52.394Z,100.00
2022-09-11T00:46:59.608Z,100.00
2022-09-11T00:49:12.571Z,100.00
2022-09-11T00:51:17.381Z,100.00
2022-09-11T00:53:26.189Z,100.00
2022-09-11T00:55:37.960Z,100.00
2022-09-11T00:57:47.656Z,100.00
2022-09-11T00:59:55.577Z,100.00
2022-09-11T01:02:00.784Z,100.00
2022-09-11T01:04:07.196Z,100.00
2022-09-11T01:06:12.809Z,100.00
2022-09-11T01:08:17.710Z,100.00
2022-09-11T01:10:23.462Z,100.00
2022-09-11T01:12:41.537Z,100.00
2022-09-11T01:14:53.150Z,100.00
2022-09-11T01:17:11.296Z,100.00
2022-09-11T01:19:30.225Z,100.00
2022-09-11T01:22:04.547Z,100.00
2022-09-11T01:24:24.523Z,100.00
2022-09-11T01:26:45.466Z,100.00
2022-09-11T01:28:59.098Z,100.00
2022-09-11T01:31:11.235Z,100.00
2022-09-11T01:33:25.470Z,100.00
2022-09-11T01:35:43.599Z,100.00
2022-09-11T01:37:57.559Z,100.00
2022-09-11T01:40:08.499Z,100.00
2022-09-11T01:42:20.263Z,100.00
2022-09-11T01:44:31.865Z,100.00
2022-09-11T01:46:41.402Z,100.00
2022-09-11T01:48:51.440Z,100.00
2022-09-11T01:50:58.986Z,100.00
2022-09-11T01:53:09.782Z,100.00
2022-09-11T01:55:21.906Z,100.00
2022-09-11T01:57:30.530Z,100.00
2022-09-11T01:59:44.107Z,100.00
2022-09-11T02:01:54.021Z,100.00
2022-09-11T02:04:05.233Z,100.00
2022-09-11T02:06:20.570Z,100.00
2022-09-11T02:08:31.559Z,100.00
2022-09-11T02:10:41.285Z,100.00
2022-09-11T02:12:52.324Z,100.00
2022-09-11T02:15:00.241Z,100.00
2022-09-11T02:17:13.643Z,100.00
2022-09-11T02:19:21.335Z,100.00
2022-09-11T02:21:26.319Z,100.00
2022-09-11T02:23:31.087Z,100.00
2022-09-11T02:25:35.913Z,100.00
2022-09-11T02:27:43.467Z,100.00
2022-09-11T02:29:48.407Z,100.00
2022-09-11T02:31:56.955Z,100.00
2022-09-11T02:34:01.816Z,100.00
2022-09-11T02:36:24.809Z,100.00
2022-09-11T02:38:35.883Z,100.00
2022-09-11T02:40:51.855Z,100.00
2022-09-11T02:43:20.231Z,100.00
2022-09-11T02:45:36.290Z,100.00
2022-09-11T02:47:59.804Z,100.00
2022-09-11T02:50:11.293Z,100.00
2022-09-11T02:52:28.725Z,100.00
2022-09-11T02:54:42.270Z,100.00
2022-09-11T02:56:52.324Z,100.00
2022-09-11T02:59:02.209Z,100.00
2022-09-11T03:01:11.905Z,100.00
2022-09-11T03:03:21.287Z,100.00
2022-09-11T03:05:26.232Z,100.00
2022-09-11T03:07:31.187Z,100.00
2022-09-11T03:09:36.779Z,100.00
2022-09-11T03:11:47.707Z,100.00
2022-09-11T03:13:52.437Z,100.00
2022-09-11T03:15:57.502Z,100.00
2022-09-11T03:18:02.315Z,100.00
2022-09-11T03:20:11.323Z,100.00
2022-09-11T03:22:16.151Z,100.00
2022-09-11T03:24:20.937Z,100.00
2022-09-11T03:26:29.751Z,100.00
2022-09-11T03:28:35.513Z,100.00
2022-09-11T03:30:44.355Z,100.00
2022-09-11T03:32:49.158Z,100.00
2022-09-11T03:34:54.057Z,100.00
2022-09-11T03:37:02.295Z,100.00
2022-09-11T03:39:07.881Z,100.00
2022-09-11T03:41:14.039Z,100.00
2022-09-11T03:43:19.491Z,100.00
2022-09-11T03:45:24.380Z,100.00
2022-09-11T03:47:29.243Z,100.00
2022-09-11T03:49:34.001Z,100.00
2022-09-11T03:51:38.938Z,100.00
2022-09-11T03:53:47.170Z,100.00
2022-09-11T03:55:52.869Z,100.00
2022-09-11T03:57:58.394Z,100.00
2022-09-11T04:00:04.012Z,100.00
2022-09-11T04:02:25.374Z,100.00
2022-09-11T04:04:33.034Z,100.00
2022-09-11T04:06:38.301Z,100.00
2022-09-11T04:08:46.372Z,100.00
2022-09-11T04:10:51.639Z,100.00
2022-09-11T04:12:56.487Z,100.00
2022-09-11T04:15:02.297Z,100.00
2022-09-11T04:17:09.425Z,100.00
2022-09-11T04:19:17.471Z,100.00
2022-09-11T04:21:22.325Z,100.00
2022-09-11T04:23:30.353Z,100.00
2022-09-11T04:25:39.050Z,100.00
2022-09-11T04:27:44.818Z,100.00
2022-09-11T04:29:53.627Z,100.00
2022-09-11T04:31:59.386Z,100.00
2022-09-11T04:34:08.275Z,100.00
2022-09-11T04:36:18.108Z,100.00
2022-09-11T04:38:24.030Z,100.00
2022-09-11T04:40:28.817Z,100.00
2022-09-11T04:42:36.199Z,100.00
2022-09-11T04:44:41.004Z,100.00
2022-09-11T04:46:45.848Z,100.00
2022-09-11T04:48:52.743Z,100.00
2022-09-11T04:51:06.276Z,100.00
2022-09-11T04:53:11.032Z,100.00
2022-09-11T04:55:16.110Z,100.00
2022-09-11T04:57:21.270Z,100.00
2022-09-11T04:59:28.641Z,100.00
2022-09-11T05:01:46.392Z,100.00
2022-09-11T05:03:53.209Z,100.00
2022-09-11T05:05:58.061Z,100.00
2022-09-11T05:08:04.047Z,100.00
2022-09-11T05:10:11.217Z,100.00
2022-09-11T05:12:16.061Z,100.00
2022-09-11T05:14:21.109Z,100.00
2022-09-11T05:16:34.475Z,100.00
2022-09-11T05:18:39.999Z,100.00
2022-09-11T05:20:44.876Z,100.00
2022-09-11T05:22:50.606Z,100.00
2022-09-11T05:24:56.011Z,100.00
2022-09-11T05:27:01.338Z,100.00
2022-09-11T05:29:09.303Z,100.00
2022-09-11T05:31:22.076Z,100.00
2022-09-11T05:33:30.526Z,100.00
2022-09-11T05:35:35.930Z,100.00
2022-09-11T05:37:41.471Z,100.00
2022-09-11T05:39:47.517Z,100.00
2022-09-11T05:41:55.400Z,100.00
2022-09-11T05:44:02.848Z,100.00
2022-09-11T05:46:11.323Z,100.00
2022-09-11T05:48:16.583Z,100.00
2022-09-11T05:50:24.451Z,100.00
2022-09-11T05:52:29.894Z,100.00
2022-09-11T05:54:35.071Z,100.00
2022-09-11T05:56:41.621Z,100.00
2022-09-11T05:58:54.933Z,100.00
2022-09-11T06:01:09.497Z,100.00
2022-09-11T06:03:16.105Z,100.00
2022-09-11T06:05:23.995Z,100.00
2022-09-11T06:07:29.130Z,100.00
2022-09-11T06:09:33.954Z,100.00
2022-09-11T06:11:39.709Z,100.00
2022-09-11T06:13:47.464Z,100.00
2022-09-11T06:15:52.702Z,100.00
2022-09-11T06:17:58.208Z,100.00
2022-09-11T06:20:03.102Z,100.00
2022-09-11T06:22:10.553Z,100.00
2022-09-11T06:24:18.769Z,100.00
2022-09-11T06:26:26.211Z,100.00
2022-09-11T06:28:31.677Z,100.00
2022-09-11T06:30:37.455Z,100.00
2022-09-11T06:32:42.357Z,100.00
2022-09-11T06:34:47.318Z,100.00
2022-09-11T06:36:53.129Z,100.00
2022-09-11T06:39:02.355Z,100.00
2022-09-11T06:41:12.307Z,100.00
2022-09-11T06:43:17.478Z,100.00
2022-09-11T06:45:22.310Z,100.00
2022-09-11T06:47:27.287Z,100.00
2022-09-11T06:49:32.208Z,100.00
2022-09-11T06:52:12.312Z,100.00
2022-09-11T06:54:22.952Z,100.00
2022-09-11T06:56:32.514Z,100.00
2022-09-11T06:58:39.706Z,100.00
2022-09-11T07:00:44.964Z,100.00
2022-09-11T07:02:51.480Z,100.00
2022-09-11T07:04:56.322Z,100.00
2022-09-11T07:07:05.198Z,100.00
2022-09-11T07:09:14.397Z,100.00
2022-09-11T07:11:32.421Z,100.00
2022-09-11T07:13:38.255Z,100.00
2022-09-11T07:15:44.727Z,100.00
2022-09-11T07:17:50.008Z,100.00
2022-09-11T07:19:54.758Z,100.00
2022-09-11T07:22:00.010Z,100.00
2022-09-11T07:24:07.186Z,100.00
2022-09-11T07:26:16.527Z,100.00
2022-09-11T07:28:25.532Z,100.00
2022-09-11T07:30:45.588Z,100.00
2022-09-11T07:32:51.095Z,100.00
2022-09-11T07:34:56.669Z,100.00
2022-09-11T07:37:01.483Z,100.00
2022-09-11T07:39:07.037Z,100.00
2022-09-11T07:41:17.240Z,100.00
2022-09-11T07:43:26.649Z,100.00
2022-09-11T07:45:32.441Z,100.00
2022-09-11T07:47:38.653Z,100.00
2022-09-11T07:49:45.850Z,100.00
2022-09-11T07:51:52.493Z,100.00
2022-09-11T07:54:04.271Z,100.00
2022-09-11T07:56:12.689Z,100.00
2022-09-11T07:58:18.004Z,100.00
2022-09-11T08:00:25.674Z,100.00
2022-09-11T08:02:43.019Z,100.00
2022-09-11T08:04:47.825Z,100.00
2022-09-11T08:06:52.570Z,100.00
2022-09-11T08:09:07.824Z,100.00
2022-09-11T08:11:18.181Z,100.00
2022-09-11T08:13:22.981Z,100.00
2022-09-11T08:15:30.626Z,100.00
2022-09-11T08:17:35.442Z,100.00
2022-09-11T08:19:40.749Z,100.00
2022-09-11T08:21:47.870Z,100.00
2022-09-11T08:23:53.022Z,100.00
2022-09-11T08:25:59.277Z,100.00
2022-09-11T08:28:04.374Z,100.00
2022-09-11T08:30:12.817Z,100.00
2022-09-11T08:32:20.314Z,100.00
2022-09-11T08:34:25.115Z,100.00
2022-09-11T08:36:30.691Z,100.00
2022-09-11T08:38:36.118Z,100.00
2022-09-11T08:40:41.692Z,100.00
2022-09-11T08:42:48.258Z,100.00
2022-09-11T08:44:57.688Z,100.00
2022-09-11T08:47:16.665Z,100.00
2022-09-11T08:49:27.604Z,100.00
2022-09-11T08:51:34.355Z,100.00
2022-09-11T08:53:41.796Z,100.00
2022-09-11T08:55:51.506Z,100.00
2022-09-11T08:58:06.632Z,100.00
2022-09-11T09:00:21.714Z,100.00
2022-09-11T09:02:57.016Z,100.00
2022-09-11T09:05:23.223Z,100.00
2022-09-11T09:07:32.264Z,100.00
2022-09-11T09:09:47.937Z,100.00
2022-09-11T09:12:02.291Z,100.00
2022-09-11T09:14:29.279Z,100.00
2022-09-11T09:16:47.205Z,100.00
2022-09-11T09:19:01.052Z,100.00
2022-09-11T09:21:15.795Z,100.00
2022-09-11T09:23:22.555Z,100.00
2022-09-11T09:25:29.336Z,100.00
2022-09-11T09:27:48.035Z,100.00
2022-09-11T09:29:56.543Z,100.00
2022-09-11T09:32:07.582Z,100.00
2022-09-11T09:34:19.885Z,100.00
2022-09-11T09:36:33.374Z,100.00
2022-09-11T09:38:38.768Z,100.00
2022-09-11T09:40:47.156Z,100.00
2022-09-11T09:43:11.138Z,100.00
2022-09-11T09:45:37.615Z,100.00
2022-09-11T09:47:45.997Z,98.53
2022-09-11T09:49:51.549Z,98.95
2022-09-11T09:52:04.544Z,100.00
2022-09-11T09:54:17.768Z,99.46
2022-09-11T09:56:23.922Z,100.00
2022-09-11T09:58:34.993Z,100.00
2022-09-11T10:00:42.678Z,98.36
2022-09-11T10:02:49.332Z,98.03
2022-09-11T10:05:10.739Z,98.16
2022-09-11T10:07:24.480Z,97.55
2022-09-11T10:09:31.313Z,95.25
2022-09-11T10:11:36.106Z,92.12
2022-09-11T10:13:44.009Z,91.44
2022-09-11T10:15:52.101Z,92.61
2022-09-11T10:18:21.882Z,94.34
2022-09-11T10:20:32.973Z,96.87
2022-09-11T10:22:40.467Z,98.25
2022-09-11T10:24:45.691Z,96.93
2022-09-11T10:26:54.282Z,97.69
2022-09-11T10:29:03.828Z,96.99
2022-09-11T10:31:09.106Z,96.14
2022-09-11T10:33:26.424Z,93.61
2022-09-11T10:35:33.372Z,89.16
2022-09-11T10:37:40.917Z,85.59
2022-09-11T10:39:49.286Z,84.87
2022-09-11T10:41:59.424Z,83.44
2022-09-11T10:44:05.696Z,84.08
2022-09-11T10:46:28.352Z,84.37
2022-09-11T10:48:33.474Z,83.69
2022-09-11T10:50:38.366Z,82.32
2022-09-11T10:52:58.010Z,80.93
2022-09-11T10:55:09.193Z,82.14
2022-09-11T10:57:20.989Z,81.65
2022-09-11T10:59:34.919Z,82.49
2022-09-11T11:01:40.050Z,84.66
2022-09-11T11:03:45.477Z,86.24
2022-09-11T11:06:03.614Z,87.23
2022-09-11T11:08:48.701Z,86.44
2022-09-11T11:11:08.449Z,87.08
2022-09-11T11:13:42.131Z,86.12
2022-09-11T11:15:57.680Z,84.72
2022-09-11T11:18:15.015Z,80.61
2022-09-11T11:20:37.294Z,79.52
2022-09-11T11:23:18.525Z,80.92
2022-09-11T11:25:30.329Z,81.91
2022-09-11T11:28:16.969Z,83.63
2022-09-11T11:30:24.160Z,86.83
2022-09-11T11:32:52.743Z,89.10
2022-09-11T11:35:15.642Z,89.85
2022-09-11T11:37:24.069Z,90.30
2022-09-11T11:39:36.046Z,91.90
2022-09-11T11:41:44.974Z,93.31
2022-09-11T11:43:51.618Z,92.79
2022-09-11T11:46:02.231Z,91.78
2022-09-11T11:48:15.970Z,82.35
2022-09-11T11:50:31.857Z,81.02
2022-09-11T11:52:46.336Z,81.21
2022-09-11T11:55:00.090Z,82.14
2022-09-11T11:57:13.024Z,82.32
2022-09-11T11:59:23.302Z,82.34
2022-09-11T12:01:37.848Z,81.01
2022-09-11T12:03:47.536Z,80.97
2022-09-11T12:05:52.728Z,81.75
2022-09-11T12:07:57.286Z,80.78
2022-09-11T12:10:07.279Z,80.47
2022-09-11T12:12:12.816Z,78.14
2022-09-11T12:14:29.713Z,77.97
2022-09-11T12:16:36.750Z,77.99
2022-09-11T12:18:42.279Z,78.79
2022-09-11T12:20:48.144Z,79.20
2022-09-11T12:22:53.456Z,80.69
2022-09-11T12:25:01.158Z,82.69
2022-09-11T12:27:37.387Z,83.29
2022-09-11T12:29:57.752Z,83.50
2022-09-11T12:32:25.738Z,82.57
2022-09-11T12:35:02.769Z,82.05
2022-09-11T12:37:09.748Z,79.83
2022-09-11T12:39:25.817Z,80.76
2022-09-11T12:41:33.877Z,82.08
2022-09-11T12:43:49.957Z,82.38
2022-09-11T12:45:57.787Z,82.85
2022-09-11T12:48:11.688Z,80.81
2022-09-11T12:50:21.666Z,80.83
2022-09-11T12:52:35.812Z,79.83
2022-09-11T12:54:44.721Z,79.55
2022-09-11T12:56:52.645Z,79.16
2022-09-11T12:59:01.910Z,77.50
2022-09-11T13:01:19.054Z,76.29
2022-09-11T13:03:28.059Z,77.62
2022-09-11T13:05:37.856Z,76.80
2022-09-11T13:07:46.113Z,75.05
2022-09-11T13:09:52.371Z,73.79
2022-09-11T13:11:59.025Z,73.89
2022-09-11T13:14:41.943Z,72.61
2022-09-11T13:16:50.084Z,74.75
2022-09-11T13:18:59.417Z,73.03
2022-09-11T13:21:15.269Z,75.05
2022-09-11T13:23:21.223Z,76.25
2022-09-11T13:25:28.130Z,81.29
2022-09-11T13:27:33.505Z,85.01
2022-09-11T13:29:42.984Z,91.06
2022-09-11T13:31:50.471Z,94.27
2022-09-11T13:33:55.686Z,97.80
2022-09-11T13:36:02.683Z,92.48
2022-09-11T13:38:10.618Z,97.79
2022-09-11T13:40:22.524Z,93.10
2022-09-11T13:42:28.529Z,93.14
2022-09-11T13:44:42.479Z,92.25
2022-09-11T13:46:55.769Z,90.42
2022-09-11T13:49:16.266Z,83.68
2022-09-11T13:51:24.207Z,84.07
2022-09-11T13:53:30.092Z,84.08
2022-09-11T13:55:35.487Z,84.94
2022-09-11T13:57:54.356Z,85.11
2022-09-11T14:00:00.514Z,86.03
2022-09-11T14:02:16.124Z,87.15
2022-09-11T14:04:21.839Z,87.51
2022-09-11T14:06:26.589Z,87.17
2022-09-11T14:08:35.345Z,84.62
2022-09-11T14:10:48.573Z,85.99
2022-09-11T14:12:59.526Z,86.53
2022-09-11T14:15:19.378Z,88.41
2022-09-11T14:17:27.398Z,87.32
2022-09-11T14:19:35.361Z,85.65
2022-09-11T14:21:43.846Z,84.55
2022-09-11T14:23:53.319Z,86.03
2022-09-11T14:26:16.210Z,84.83
2022-09-11T14:28:43.348Z,85.52
2022-09-11T14:31:06.924Z,86.77
2022-09-11T14:33:27.065Z,87.70
2022-09-11T14:35:32.543Z,88.57
2022-09-11T14:37:44.079Z,88.57
2022-09-11T14:39:51.323Z,86.72
2022-09-11T14:41:56.617Z,85.78
2022-09-11T14:44:01.594Z,85.02
2022-09-11T14:46:06.677Z,82.15
2022-09-11T14:48:14.425Z,78.80
2022-09-11T14:50:21.904Z,76.89
2022-09-11T14:52:30.355Z,76.22
2022-09-11T14:54:35.147Z,73.29
2022-09-11T14:56:40.702Z,71.13
2022-09-11T14:58:46.520Z,70.84
2022-09-11T15:00:51.388Z,68.84
2022-09-11T15:02:56.157Z,69.20
2022-09-11T15:05:01.252Z,69.63
2022-09-11T15:07:08.758Z,70.37
2022-09-11T15:09:13.578Z,71.83
2022-09-11T15:11:18.360Z,72.78
2022-09-11T15:13:23.694Z,72.78
2022-09-11T15:15:33.362Z,73.38
2022-09-11T15:17:38.339Z,73.72
2022-09-11T15:19:45.811Z,74.50
2022-09-11T15:21:50.541Z,75.20
2022-09-11T15:23:58.908Z,76.02
2022-09-11T15:26:05.689Z,75.56
2022-09-11T15:28:10.716Z,73.35
2022-09-11T15:30:15.462Z,74.65
2022-09-11T15:32:20.607Z,74.39
2022-09-11T15:34:27.348Z,73.88
2022-09-11T15:36:32.079Z,73.07
2022-09-11T15:38:36.920Z,72.52
2022-09-11T15:40:44.275Z,73.54
2022-09-11T15:42:50.068Z,74.46
2022-09-11T15:44:56.381Z,74.73
2022-09-11T15:47:02.107Z,74.87
2022-09-11T15:49:06.870Z,73.27
2022-09-11T15:51:13.405Z,74.31
2022-09-11T15:53:18.526Z,74.29
2022-09-11T15:55:23.099Z,73.71
2022-09-11T15:57:31.077Z,74.47
2022-09-11T15:59:36.261Z,75.73
2022-09-11T16:01:40.921Z,75.29
2022-09-11T16:03:46.017Z,75.50
2022-09-11T16:05:50.739Z,75.49
2022-09-11T16:07:55.596Z,75.57
2022-09-11T16:10:00.512Z,75.72
2022-09-11T16:12:05.889Z,75.96
2022-09-11T16:14:19.532Z,76.77
2022-09-11T16:16:24.510Z,76.24
2022-09-11T16:18:29.435Z,75.73
2022-09-11T16:20:34.292Z,76.58
2022-09-11T16:22:39.034Z,77.10
2022-09-11T16:24:43.902Z,76.73
2022-09-11T16:26:48.953Z,76.90
2022-09-11T16:28:53.527Z,76.55
2022-09-11T16:31:01.033Z,77.71
2022-09-11T16:33:05.865Z,78.64
2022-09-11T16:35:13.455Z,77.80
2022-09-11T16:37:18.445Z,77.56
2022-09-11T16:39:23.524Z,78.54
2022-09-11T16:41:28.192Z,75.83
2022-09-11T16:43:33.395Z,77.53
2022-09-11T16:45:40.003Z,76.90
2022-09-11T16:47:47.464Z,76.02
2022-09-11T16:50:09.174Z,76.14
2022-09-11T16:52:14.055Z,76.04
2022-09-11T16:54:19.183Z,76.70
2022-09-11T16:56:25.924Z,76.21
2022-09-11T16:58:31.314Z,76.71
2022-09-11T17:00:36.256Z,76.39
2022-09-11T17:02:40.978Z,76.10
2022-09-11T17:04:48.355Z,76.97
2022-09-11T17:06:53.465Z,77.86
2022-09-11T17:08:59.220Z,77.72
2022-09-11T17:11:05.904Z,78.27
2022-09-11T17:13:10.991Z,78.46
2022-09-11T17:15:15.801Z,77.63
2022-09-11T17:17:20.534Z,77.92
2022-09-11T17:19:25.350Z,76.80
2022-09-11T17:21:37.843Z,76.72
2022-09-11T17:23:42.651Z,77.74
2022-09-11T17:25:48.301Z,77.80
2022-09-11T17:27:53.338Z,78.49
2022-09-11T17:29:57.948Z,79.37
2022-09-11T17:32:26.151Z,79.43
2022-09-11T17:34:27.623Z,79.13
2022-09-11T17:36:35.451Z,80.01
2022-09-11T17:38:41.230Z,80.25
2022-09-11T17:40:46.271Z,79.99
2022-09-11T17:42:51.182Z,80.34
2022-09-11T17:44:56.399Z,81.15
2022-09-11T17:47:02.420Z,81.28
2022-09-11T17:49:07.368Z,81.61
2022-09-11T17:51:14.254Z,82.51
2022-09-11T17:53:22.366Z,82.78
2022-09-11T17:55:27.079Z,83.18
2022-09-11T17:57:32.436Z,83.54
2022-09-11T17:59:37.204Z,84.81
2022-09-11T18:01:43.276Z,85.57
2022-09-11T18:03:53.029Z,86.11
2022-09-11T18:05:59.012Z,87.19
2022-09-11T18:08:03.787Z,87.86
2022-09-11T18:10:12.212Z,89.20
2022-09-11T18:12:17.368Z,90.76
2022-09-11T18:14:21.922Z,92.93
2022-09-11T18:16:26.918Z,94.04
2022-09-11T18:18:31.536Z,95.71
2022-09-11T18:20:38.206Z,97.32
2022-09-11T18:22:43.027Z,98.52
2022-09-11T18:24:49.729Z,100.00
2022-09-11T18:27:00.724Z,100.00
2022-09-11T18:29:09.880Z,100.00
2022-09-11T18:31:14.909Z,100.00
2022-09-11T18:33:19.683Z,100.00
2022-09-11T18:35:24.507Z,100.00
2022-09-11T18:37:29.371Z,100.00
2022-09-11T18:39:34.212Z,100.00
2022-09-11T18:41:38.985Z,100.00
2022-09-11T18:43:46.434Z,100.00
2022-09-11T18:45:51.194Z,100.00
2022-09-11T18:47:56.051Z,100.00
2022-09-11T18:50:01.117Z,100.00
2022-09-11T18:52:07.305Z,100.00
2022-09-11T18:54:15.282Z,100.00
2022-09-11T18:56:20.491Z,100.00
2022-09-11T18:58:25.013Z,100.00
2022-09-11T19:00:32.856Z,100.00
2022-09-11T19:02:37.902Z,100.00
2022-09-11T19:04:42.658Z,100.00
2022-09-11T19:06:48.291Z,100.00
2022-09-11T19:08:54.820Z,100.00
2022-09-11T19:11:00.297Z,100.00
2022-09-11T19:13:05.258Z,100.00
2022-09-11T19:15:11.300Z,100.00
2022-09-11T19:17:18.703Z,100.00
2022-09-11T19:19:23.728Z,100.00
2022-09-11T19:21:28.647Z,100.00
2022-09-11T19:23:34.238Z,100.00
2022-09-11T19:25:39.085Z,100.00
2022-09-11T19:27:43.825Z,100.00
2022-09-11T19:29:50.098Z,100.00
2022-09-11T19:31:55.385Z,100.00
2022-09-11T19:34:04.539Z,100.00
2022-09-11T19:36:11.979Z,100.00
2022-09-11T19:38:16.754Z,100.00
2022-09-11T19:40:21.678Z,100.00
2022-09-11T19:42:27.149Z,100.00
2022-09-11T19:44:34.485Z,100.00
2022-09-11T19:46:41.090Z,100.00
2022-09-11T19:48:47.057Z,100.00
2022-09-11T19:50:54.847Z,100.00
2022-09-11T19:53:00.379Z,100.00
2022-09-11T19:55:05.235Z,100.00
2022-09-11T19:57:10.067Z,100.00
2022-09-11T19:59:15.680Z,100.00
2022-09-11T20:01:22.490Z,100.00
2022-09-11T20:03:27.723Z,100.00
2022-09-11T20:05:32.534Z,100.00
2022-09-11T20:07:40.527Z,100.00
2022-09-11T20:09:45.274Z,100.00
2022-09-11T20:11:50.180Z,100.00
2022-09-11T20:13:55.376Z,100.00
2022-09-11T20:16:04.399Z,100.00
2022-09-11T20:18:10.409Z,100.00
2022-09-11T20:20:15.374Z,100.00
2022-09-11T20:22:22.065Z,100.00
2022-09-11T20:24:29.638Z,100.00
2022-09-11T20:26:34.623Z,100.00
2022-09-11T20:28:39.552Z,100.00
2022-09-11T20:30:44.367Z,100.00
2022-09-11T20:32:49.212Z,100.00
2022-09-11T20:34:54.173Z,100.00
2022-09-11T20:37:00.896Z,100.00
2022-09-11T20:39:06.236Z,100.00
2022-09-11T20:41:15.689Z,100.00
2022-09-11T20:43:20.490Z,100.00
2022-09-11T20:45:25.281Z,100.00
2022-09-11T20:47:30.034Z,100.00
2022-09-11T20:49:34.786Z,100.00
2022-09-11T20:51:39.710Z,100.00
2022-09-11T20:53:45.712Z,100.00
2022-09-11T20:55:50.781Z,100.00
2022-09-11T20:58:00.605Z,100.00
2022-09-11T21:00:06.531Z,100.00
2022-09-11T21:02:12.542Z,100.00
2022-09-11T21:04:17.489Z,100.00
2022-09-11T21:06:26.133Z,100.00
2022-09-11T21:08:31.275Z,100.00
2022-09-11T21:10:38.669Z,100.00
2022-09-11T21:12:43.470Z,100.00
2022-09-11T21:14:50.915Z,100.00
2022-09-11T21:16:55.773Z,100.00
2022-09-11T21:19:02.498Z,100.00
2022-09-11T21:21:07.992Z,100.00
2022-09-11T21:23:12.819Z,100.00
2022-09-11T21:25:17.638Z,100.00
2022-09-11T21:27:22.413Z,100.00
2022-09-11T21:29:27.269Z,100.00
2022-09-11T21:31:35.291Z,100.00
2022-09-11T21:33:41.168Z,100.00
2022-09-11T21:35:46.063Z,100.00
2022-09-11T21:37:50.942Z,100.00
2022-09-11T21:39:55.795Z,100.00
2022-09-11T21:42:00.608Z,100.00
2022-09-11T21:44:05.835Z,100.00
2022-09-11T21:46:11.226Z,100.00
2022-09-11T21:48:18.531Z,100.00
2022-09-11T21:50:23.271Z,100.00
2022-09-11T21:52:28.189Z,100.00
2022-09-11T21:54:32.912Z,100.00
2022-09-11T21:56:37.662Z,100.00
2022-09-11T21:58:42.576Z,100.00
2022-09-11T22:00:48.534Z,100.00
2022-09-11T22:02:53.351Z,100.00
2022-09-11T22:05:01.073Z,100.00
2022-09-11T22:07:06.660Z,100.00
2022-09-11T22:09:11.483Z,100.00
2022-09-11T22:11:17.313Z,100.00
2022-09-11T22:13:22.739Z,100.00
2022-09-11T22:15:27.500Z,100.00
2022-09-11T22:17:32.324Z,100.00
2022-09-11T22:19:37.115Z,100.00
2022-09-11T22:21:44.483Z,100.00
2022-09-11T22:23:49.298Z,100.00
2022-09-11T22:26:01.253Z,100.00
2022-09-11T22:28:06.310Z,100.00
2022-09-11T22:30:11.986Z,100.00
2022-09-11T22:32:16.742Z,100.00
2022-09-11T22:34:21.574Z,100.00
2022-09-11T22:36:28.847Z,100.00
2022-09-11T22:38:36.645Z,100.00
2022-09-11T22:40:41.558Z,100.00
2022-09-11T22:42:47.022Z,100.00
2022-09-11T22:44:51.887Z,100.00
2022-09-11T22:46:56.743Z,100.00
2022-09-11T22:49:03.444Z,100.00
2022-09-11T22:51:08.583Z,100.00
2022-09-11T22:53:13.126Z,100.00
2022-09-11T22:55:20.733Z,100.00
2022-09-11T22:57:28.976Z,100.00
2022-09-11T22:59:34.078Z,100.00
2022-09-11T23:01:40.085Z,100.00
2022-09-11T23:03:45.108Z,100.00
2022-09-11T23:06:02.313Z,100.00
2022-09-11T23:08:07.211Z,100.00
2022-09-11T23:10:13.627Z,100.00
2022-09-11T23:12:21.018Z,100.00
2022-09-11T23:14:25.905Z,100.00
2022-09-11T23:16:32.574Z,100.00
2022-09-11T23:18:37.328Z,100.00
2022-09-11T23:20:42.424Z,100.00
2022-09-11T23:22:47.236Z,100.00
2022-09-11T23:24:52.019Z,100.00
2022-09-11T23:26:56.800Z,100.00
2022-09-11T23:29:04.284Z,100.00
2022-09-11T23:31:15.197Z,100.00
2022-09-11T23:33:20.034Z,100.00
2022-09-11T23:35:25.095Z,100.00
2022-09-11T23:37:30.014Z,100.00
2022-09-11T23:39:35.088Z,100.00
2022-09-11T23:41:39.925Z,100.00
2022-09-11T23:43:45.207Z,100.00
2022-09-11T23:45:52.857Z,100.00
2022-09-11T23:47:57.618Z,100.00
2022-09-11T23:50:02.969Z,100.00
2022-09-11T23:52:08.226Z,100.00
2022-09-11T23:54:13.030Z,100.00
2022-09-11T23:56:18.074Z,100.00
2022-09-11T23:58:22.988Z,100.00
